createdAt,value
2019-02-19T00:02:59.797Z,44.83
2019-02-19T00:08:01.599Z,72.53
2019-02-19T00:13:03.402Z,61.77
2019-02-19T00:18:05.204Z,53.80
2019-02-19T00:23:07.008Z,63.63
2019-02-19T00:28:09.018Z,95.77
2019-02-19T00:33:10.802Z,101.47
2019-02-19T00:38:12.650Z,103.43
2019-02-19T00:43:14.635Z,95.97
2019-02-19T00:48:16.446Z,99.30
2019-02-19T00:53:18.272Z,103.97
2019-02-19T00:58:20.461Z,101.50
2019-02-19T01:03:23.485Z,97.20
2019-02-19T01:08:25.500Z,110.67
2019-02-19T01:13:27.306Z,117.63
2019-02-19T01:18:29.520Z,115.60
2019-02-19T01:23:31.328Z,114.10
2019-02-19T01:28:33.129Z,106.93
2019-02-19T01:33:35.248Z,105.90
2019-02-19T01:38:37.437Z,96.97
2019-02-19T01:43:39.840Z,115.47
2019-02-19T01:48:41.629Z,103.57
2019-02-19T01:53:43.930Z,109.83
2019-02-19T01:58:45.726Z,97.10
2019-02-19T02:03:47.523Z,106.57
2019-02-19T02:08:50.031Z,107.77
2019-02-19T02:13:52.642Z,127.97
2019-02-19T02:18:54.851Z,125.83
2019-02-19T02:23:56.844Z,114.97
2019-02-19T02:28:58.739Z,139.43
2019-02-19T02:34:00.914Z,147.30
2019-02-19T02:39:03.050Z,130.73
2019-02-19T02:44:05.093Z,117.90
2019-02-19T02:49:06.770Z,113.67
2019-02-19T02:54:08.560Z,77.33
2019-02-19T02:59:10.787Z,94.20
2019-02-19T03:04:12.633Z,105.23
2019-02-19T03:09:14.514Z,103.87
2019-02-19T03:14:17.196Z,116.87
2019-02-19T03:19:18.976Z,106.27
2019-02-19T03:24:20.944Z,107.17
2019-02-19T03:29:22.721Z,96.80
2019-02-19T03:34:24.706Z,113.80
2019-02-19T03:39:26.566Z,111.10
2019-02-19T03:44:28.414Z,128.23
2019-02-19T03:49:30.243Z,94.40
2019-02-19T03:54:32.507Z,110.80
2019-02-19T03:59:34.831Z,119.47
2019-02-19T04:04:36.658Z,98.10
2019-02-19T04:09:38.486Z,96.37
2019-02-19T04:14:40.317Z,87.23
2019-02-19T04:19:42.455Z,104.57
2019-02-19T04:24:44.190Z,94.93
2019-02-19T04:29:46.424Z,76.37
2019-02-19T04:34:48.552Z,87.07
2019-02-19T04:39:50.894Z,67.87
2019-02-19T04:44:53.141Z,87.47
2019-02-19T04:49:55.415Z,68.90
2019-02-19T04:54:57.176Z,87.30
2019-02-19T04:59:59.035Z,64.67
2019-02-19T05:05:00.797Z,85.47
2019-02-19T05:10:03.718Z,100.00
2019-02-19T05:15:08.266Z,91.57
2019-02-19T05:20:10.103Z,106.63
2019-02-19T05:25:12.203Z,79.70
2019-02-19T05:30:14.402Z,101.10
2019-02-19T05:35:16.250Z,124.27
2019-02-19T05:40:18.340Z,117.70
2019-02-19T05:45:20.250Z,84.30
2019-02-19T05:50:22.055Z,92.00
2019-02-19T05:55:23.881Z,111.07
2019-02-19T06:00:25.682Z,116.70
2019-02-19T06:05:27.887Z,102.77
2019-02-19T06:10:29.630Z,108.53
2019-02-19T06:15:31.381Z,101.80
2019-02-19T06:20:33.205Z,115.10
2019-02-19T06:25:35.426Z,118.53
2019-02-19T06:30:37.230Z,105.87
2019-02-19T06:35:39.063Z,99.20
2019-02-19T06:40:40.838Z,108.37
2019-02-19T06:45:59.705Z,76.53
2019-02-19T06:51:01.761Z,71.47
2019-02-19T06:56:29.866Z,81.73
2019-02-19T07:01:36.505Z,77.07
2019-02-19T07:06:38.621Z,90.00
2019-02-19T07:11:40.423Z,72.57
2019-02-19T07:16:42.227Z,93.37
2019-02-19T07:21:44.038Z,84.13
2019-02-19T07:26:45.840Z,78.93
2019-02-19T07:31:47.647Z,68.63
2019-02-19T07:36:49.865Z,85.57
2019-02-19T07:41:51.874Z,57.27
2019-02-19T07:46:55.210Z,78.27
2019-02-19T07:51:57.019Z,50.03
2019-02-19T07:56:58.821Z,98.17
2019-02-19T08:02:00.934Z,59.13
2019-02-19T08:07:03.153Z,76.60
2019-02-19T08:12:04.912Z,88.33
2019-02-19T08:17:06.672Z,71.37
2019-02-19T08:22:08.425Z,79.87
2019-02-19T08:27:10.680Z,71.77
2019-02-19T08:32:12.438Z,116.03
2019-02-19T08:37:14.800Z,71.67
2019-02-19T08:42:16.500Z,113.07
2019-02-19T08:47:18.507Z,62.80
2019-02-19T08:52:20.171Z,71.60
2019-02-19T08:57:22.251Z,96.93
2019-02-19T09:02:23.994Z,100.03
2019-02-19T09:07:26.243Z,54.77
2019-02-19T09:12:28.466Z,66.57
2019-02-19T09:17:30.286Z,67.47
2019-02-19T09:22:32.135Z,72.47
2019-02-19T09:27:34.054Z,121.27
2019-02-19T09:32:36.154Z,115.63
2019-02-19T09:37:38.256Z,77.97
2019-02-19T09:42:40.362Z,101.53
2019-02-19T09:47:42.265Z,86.30
2019-02-19T09:52:44.051Z,92.43
2019-02-19T09:57:46.262Z,104.50
2019-02-19T10:02:48.014Z,81.97
2019-02-19T10:07:50.131Z,103.60
2019-02-19T10:12:51.995Z,96.73
2019-02-19T10:17:53.743Z,120.27
2019-02-19T10:22:55.913Z,110.77
2019-02-19T10:27:57.715Z,100.60
2019-02-19T10:32:59.516Z,74.03
2019-02-19T10:38:01.580Z,122.53
2019-02-19T10:43:03.241Z,122.40
2019-02-19T10:48:05.127Z,85.70
2019-02-19T10:53:06.927Z,109.10
2019-02-19T10:58:08.732Z,102.70
2019-02-19T11:03:10.537Z,72.87
2019-02-19T11:08:13.060Z,78.30
2019-02-19T11:13:14.858Z,92.87
2019-02-19T11:18:16.659Z,69.20
2019-02-19T11:23:18.403Z,99.83
2019-02-19T11:28:20.157Z,83.97
2019-02-19T11:33:21.961Z,84.97
2019-02-19T11:38:24.173Z,98.90
2019-02-19T11:43:26.694Z,111.87
2019-02-19T11:48:36.606Z,97.10
2019-02-19T11:53:32.352Z,85.03
2019-02-19T11:58:34.031Z,107.33
2019-02-19T12:03:35.891Z,93.37
2019-02-19T12:08:39.212Z,89.03
2019-02-19T12:13:41.299Z,94.73
2019-02-19T12:18:46.221Z,97.83
2019-02-19T12:23:46.850Z,92.73
2019-02-19T12:28:56.799Z,84.40
2019-02-19T12:33:59.430Z,71.13
2019-02-19T12:39:01.361Z,82.23
2019-02-19T12:44:03.324Z,76.47
2019-02-19T12:49:05.175Z,67.07
2019-02-19T12:54:07.223Z,73.87
2019-02-19T12:59:09.299Z,68.77
2019-02-19T13:04:11.089Z,67.23
2019-02-19T13:09:13.404Z,71.83
2019-02-19T13:14:15.184Z,103.07
2019-02-19T13:19:17.005Z,61.67
2019-02-19T13:24:18.789Z,88.13
2019-02-19T13:29:21.053Z,57.27
2019-02-19T13:34:26.014Z,57.80
2019-02-19T13:39:28.374Z,74.63
2019-02-19T13:44:30.304Z,54.97
2019-02-19T13:49:33.340Z,72.00
2019-02-19T13:54:35.150Z,64.67
2019-02-19T13:59:36.924Z,78.00
2019-02-19T14:04:38.677Z,62.87
2019-02-19T14:09:40.937Z,74.83
2019-02-19T14:14:44.575Z,50.17
2019-02-19T14:19:48.214Z,68.80
2019-02-19T14:24:51.786Z,71.33
2019-02-19T14:30:07.344Z,78.60
2019-02-19T14:35:27.717Z,80.87
2019-02-19T14:40:49.346Z,70.33
2019-02-19T14:46:09.813Z,60.50
2019-02-19T14:51:22.479Z,87.67
2019-02-19T14:56:31.125Z,63.23
2019-02-19T15:01:34.976Z,57.83
2019-02-19T15:06:45.268Z,67.23
2019-02-19T15:11:55.063Z,64.37
2019-02-19T15:17:15.532Z,59.47
2019-02-19T15:22:35.935Z,62.50
2019-02-19T15:27:42.461Z,64.47
2019-02-19T15:32:51.949Z,58.10
2019-02-19T15:38:07.871Z,68.47
2019-02-19T15:43:30.151Z,46.40
2019-02-19T15:48:50.624Z,71.70
2019-02-19T15:54:13.251Z,64.67
2019-02-19T15:59:20.703Z,62.77
2019-02-19T16:04:28.050Z,56.03
2019-02-19T16:09:50.248Z,59.50
2019-02-19T16:14:54.273Z,87.53
2019-02-19T16:20:04.067Z,85.33
2019-02-19T16:25:14.369Z,57.33
2019-02-19T16:30:21.078Z,63.57
2019-02-19T16:35:24.717Z,86.83
2019-02-19T16:40:31.431Z,62.60
2019-02-19T16:45:41.258Z,88.23
2019-02-19T16:50:44.856Z,84.73
2019-02-19T16:55:48.596Z,75.40
2019-02-19T17:01:01.472Z,60.93
2019-02-19T17:06:12.963Z,67.37
2019-02-19T17:11:16.664Z,66.83
2019-02-19T17:16:26.805Z,75.40
2019-02-19T17:21:31.244Z,73.17
2019-02-19T17:26:54.874Z,82.57
2019-02-19T17:32:15.781Z,55.20
2019-02-19T17:37:19.793Z,66.40
2019-02-19T17:42:41.085Z,74.20
2019-02-19T17:48:03.707Z,63.00
2019-02-19T17:53:09.122Z,90.07
2019-02-19T17:58:15.628Z,91.33
2019-02-19T18:03:25.802Z,66.60
2019-02-19T18:08:35.498Z,64.03
2019-02-19T18:13:48.188Z,67.00
2019-02-19T18:18:50.208Z,58.80
2019-02-19T18:23:52.270Z,60.60
2019-02-19T18:28:54.914Z,49.77
2019-02-19T18:33:57.209Z,78.10
2019-02-19T18:38:59.222Z,97.90
2019-02-19T18:44:01.168Z,72.13
2019-02-19T18:49:03.260Z,85.80
2019-02-19T18:54:05.323Z,47.70
2019-02-19T18:59:08.025Z,48.30
2019-02-19T19:04:10.547Z,63.50
2019-02-19T19:09:13.962Z,72.57
2019-02-19T19:14:15.964Z,53.93
2019-02-19T19:19:17.941Z,76.47
2019-02-19T19:24:22.097Z,67.73
2019-02-19T19:29:27.333Z,61.53
2019-02-19T19:34:29.682Z,50.90
2019-02-19T19:39:32.839Z,74.87
2019-02-19T19:44:35.400Z,63.27
2019-02-19T19:49:38.075Z,82.90
2019-02-19T19:54:44.098Z,73.30
2019-02-19T19:59:48.951Z,66.63
2019-02-19T20:04:52.037Z,61.93
2019-02-19T20:09:54.605Z,56.73
2019-02-19T20:14:56.504Z,53.90
2019-02-19T20:20:01.073Z,58.73
2019-02-19T20:25:05.454Z,51.40
2019-02-19T20:30:15.810Z,54.37
2019-02-19T20:35:18.354Z,52.97
2019-02-19T20:40:21.480Z,55.30
2019-02-19T20:45:25.323Z,75.63
2019-02-19T20:50:28.906Z,66.27
2019-02-19T20:55:36.939Z,69.47
2019-02-19T21:00:36.902Z,75.20
2019-02-19T21:05:39.393Z,53.80
2019-02-19T21:10:42.477Z,60.07
2019-02-19T21:15:46.735Z,74.63
2019-02-19T21:20:48.735Z,69.07
2019-02-19T21:25:51.557Z,73.20
2019-02-19T21:30:53.564Z,58.17
2019-02-19T21:35:58.087Z,68.40
2019-02-19T21:41:00.135Z,68.60
2019-02-19T21:46:07.448Z,72.00
2019-02-19T21:51:10.506Z,45.77
2019-02-19T21:56:12.915Z,67.00
2019-02-19T22:01:17.578Z,73.07
2019-02-19T22:06:19.981Z,74.37
2019-02-19T22:11:21.777Z,57.80
2019-02-19T22:16:23.693Z,51.57
2019-02-19T22:21:27.275Z,58.17
2019-02-19T22:26:29.134Z,68.67
2019-02-19T22:31:30.928Z,58.90
2019-02-19T22:36:32.839Z,50.93
2019-02-19T22:41:34.636Z,61.53
2019-02-19T22:46:36.438Z,52.90
2019-02-19T22:51:38.219Z,65.47
2019-02-19T22:56:39.901Z,89.53
2019-02-19T23:01:46.478Z,61.80
2019-02-19T23:06:48.160Z,66.60
2019-02-19T23:11:49.859Z,66.93
2019-02-19T23:16:51.554Z,70.73
2019-02-19T23:21:53.659Z,83.67
2019-02-19T23:26:55.357Z,52.70
2019-02-19T23:31:57.517Z,55.27
2019-02-19T23:37:00.267Z,69.53
2019-02-19T23:42:02.260Z,77.87
2019-02-19T23:47:04.053Z,78.73
2019-02-19T23:52:05.855Z,74.77
2019-02-19T23:57:07.539Z,68.80
